Kezdőlap
METAR-TAF:

METAR-TAF

Repülőterek :

Aeroflex-Andover Airport

Andover, New Jersey, Amerikai Egyesült Államok

földrajzi szélesség: 41-00-32N, földrajzi hosszúság: 074-44-12W, magasság: 177 m

Jelenlegi meteorológiai megfigyelések

A jelentés 45 perccel ezelõtt készült, 13:54 UTC
Különbözõ irányokból fújó szél 4 kt
Hőmérséklet -6°C
Páratartalom 68%
Légköri nyomás 1031 hPa

METAR: K12N 211354Z AUTO VRB04KT M06/M11 A3045 RMK AO1 SLP326 T10611111

Idő: 09:39 (14:39 UTC)


TAF: hiányzik

Meteorológiai megfigyelések és előrejelzések több, mint 4000 repülőtéren (METAR és TAF jelentéseket).

A térképen piros és sárga pontok jelzik az elérhető meteorológiai állomásokat.

Mozgassa az egeret a pont fölött, hogy megjelenjen az állomás neve.

Azután kattintson az időjárási megfigyelések és előrejelzések megtekintéséhez.

A térkép megváltoztatása: kattintson a fekete keresztel jelölt zöld gombra ráközelítéshez, a vonallal jelölt zöld gombra távolításhoz, vagy a zöld nyilakra a szomszédos térképek eléréséhez.


METAR-TAF: